.
WxDataArchive / Data Records for 2015-01-14
2015-01-13 January 2015 2015-01-15

Data Records for Wednesday, 14 January 2015

Time	Temp	Chill	HIndex	Humid	Dewpt	 Wind 	HiWind	WindDir	Rain 	Barom
-----	----	-----	------	-----	-----	------	------	-------	-----	-----
00:00	3.4	3.4	3.4	78	-1.9	0	1	90	0.00	30.515 
00:05	3.4	3.4	3.4	78	-1.9	0	1	90	0.00	30.515 
00:10	3.4	3.4	3.4	78	-1.9	0	0	---	0.00	30.515 
00:15	3.4	3.4	3.4	78	-1.9	0	1	90	0.00	30.503 
00:20	3.4	3.4	3.4	78	-1.9	0	1	90	0.00	30.503 
00:25	3.4	3.4	3.4	79	-1.6	0	1	90	0.00	30.503 
00:30	3.5	3.5	3.5	79	-1.5	0	1	90	0.00	30.501 
00:35	3.5	3.5	3.5	79	-1.5	0	1	90	0.00	30.501 
00:40	3.5	3.5	3.5	79	-1.5	0	1	90	0.00	30.501 
00:45	3.5	3.5	3.5	79	-1.5	0	1	90	0.00	30.493 
00:50	3.5	3.5	3.5	79	-1.5	0	2	90	0.00	30.493 
00:55	3.4	3.4	3.4	79	-1.6	0	1	90	0.00	30.493 
01:00	3.4	3.4	3.4	79	-1.6	0	0	---	0.00	30.489 
01:05	3.4	3.4	3.4	79	-1.6	0	1	90	0.00	30.489 
01:10	3.4	3.4	3.4	79	-1.6	0	0	---	0.00	30.489 
01:15	3.4	3.4	3.4	79	-1.6	0	1	90	0.00	30.484 
01:20	3.4	3.4	3.4	79	-1.6	0	1	90	0.00	30.484 
01:25	3.4	3.4	3.4	79	-1.6	0	1	90	0.00	30.484 
01:30	3.4	3.4	3.4	79	-1.6	0	0	---	0.00	30.483 
01:35	3.4	3.4	3.4	79	-1.6	0	0	---	0.00	30.483 
01:40	3.4	3.4	3.4	79	-1.6	0	0	---	0.00	30.483 
01:45	3.4	3.4	3.4	79	-1.6	0	0	---	0.00	30.479 
01:50	3.4	3.4	3.4	80	-1.4	0	0	---	0.00	30.479 
01:55	3.2	3.2	3.2	80	-1.6	0	0	---	0.00	30.479 
02:00	3.2	3.2	3.2	80	-1.6	0	0	---	0.00	30.475 
02:05	3.4	3.4	3.4	80	-1.4	0	0	---	0.00	30.475 
02:10	3.7	3.7	3.7	81	-0.8	0	1	90	0.00	30.475 
02:15	4.1	4.1	4.1	81	-0.4	0	1	90	0.00	30.469 
02:20	4.3	4.3	4.3	82	0.0	0	3	90	0.00	30.469 
02:25	4.5	4.5	4.5	83	0.5	0	3	90	0.00	30.469 
02:30	4.5	4.5	4.5	83	0.5	0	1	90	0.00	30.465 
02:35	4.5	4.5	4.5	83	0.5	0	1	90	0.00	30.465 
02:40	4.5	4.5	4.5	83	0.5	0	1	90	0.00	30.465 
02:45	4.3	4.3	4.3	83	0.3	0	0	---	0.00	30.463 
02:50	4.3	4.3	4.3	82	0.0	0	0	---	0.00	30.463 
02:55	4.1	4.1	4.1	82	-0.1	0	0	---	0.00	30.463 
03:00	4.1	4.1	4.1	82	-0.1	0	0	---	0.00	30.452 
03:05	4.1	4.1	4.1	82	-0.1	0	0	---	0.00	30.452 
03:10	3.9	3.9	3.9	82	-0.3	0	0	---	0.00	30.452 
03:15	3.9	3.9	3.9	82	-0.3	0	0	---	0.00	30.452 
03:20	3.9	3.9	3.9	82	-0.3	0	0	---	0.00	30.452 
03:25	3.9	3.9	3.9	82	-0.3	0	1	90	0.00	30.452 
03:30	4.1	4.1	4.1	82	-0.1	0	1	90	0.00	30.443 
03:35	4.3	4.3	4.3	82	0.0	0	0	---	0.00	30.443 
03:40	4.3	4.3	4.3	82	0.0	0	0	---	0.00	30.443 
03:45	4.3	4.3	4.3	82	0.0	1	3	90	0.00	30.435 
03:50	4.3	4.3	4.3	82	0.0	0	2	90	0.00	30.435 
03:55	4.3	4.3	4.3	82	0.0	0	1	90	0.00	30.435 
04:00	4.3	4.3	4.3	82	0.0	0	2	90	0.00	30.429 
04:05	4.3	4.3	4.3	82	0.0	0	1	90	0.00	30.429 
04:10	4.3	4.3	4.3	82	0.0	0	1	90	0.00	30.429 
04:15	4.3	4.3	4.3	82	0.0	0	0	---	0.00	30.424 
04:20	4.3	4.3	4.3	82	0.0	0	0	---	0.00	30.424 
04:25	4.3	4.3	4.3	82	0.0	0	0	---	0.00	30.424 
04:30	4.3	4.3	4.3	82	0.0	0	0	---	0.00	30.420 
04:35	4.3	4.3	4.3	82	0.0	0	1	90	0.00	30.420 
04:40	4.1	4.1	4.1	82	-0.1	0	1	90	0.00	30.420 
04:45	4.1	4.1	4.1	82	-0.1	0	0	---	0.00	30.417 
04:50	3.9	3.9	3.9	82	-0.3	0	0	---	0.00	30.417 
04:55	3.9	3.9	3.9	82	-0.3	0	1	90	0.00	30.417 
05:00	3.7	3.7	3.7	82	-0.5	0	0	---	0.00	30.413 
05:05	3.7	3.7	3.7	82	-0.5	0	0	---	0.00	30.413 
05:10	3.5	3.5	3.5	82	-0.7	0	0	---	0.00	30.413 
05:15	3.5	3.5	3.5	82	-0.7	0	0	---	0.00	30.419 
05:20	3.5	3.5	3.5	82	-0.7	0	0	---	0.00	30.419 
05:25	3.5	3.5	3.5	82	-0.7	0	1	90	0.00	30.419 
05:30	3.5	3.5	3.5	82	-0.7	0	0	---	0.00	30.410 
05:35	3.4	3.4	3.4	82	-0.8	0	0	---	0.00	30.410 
05:40	3.4	3.4	3.4	82	-0.8	0	1	90	0.00	30.410 
05:45	3.4	3.4	3.4	82	-0.8	0	0	---	0.00	30.410 
05:50	3.4	3.4	3.4	82	-0.8	0	0	---	0.00	30.410 
05:55	3.4	3.4	3.4	82	-0.8	0	0	---	0.00	30.410 
06:00	3.4	3.4	3.4	82	-0.8	0	0	---	0.00	30.417 
06:05	3.5	3.5	3.5	82	-0.7	0	0	---	0.00	30.417 
06:10	3.5	3.5	3.5	82	-0.7	0	0	---	0.00	30.417 
06:15	3.4	3.4	3.4	82	-0.8	0	0	---	0.00	30.426 
06:20	3.4	3.4	3.4	82	-0.8	0	0	---	0.00	30.426 
06:25	3.4	3.4	3.4	82	-0.8	0	0	---	0.00	30.426 
06:30	3.4	3.4	3.4	82	-0.8	0	0	---	0.00	30.425 
06:35	3.4	3.4	3.4	82	-0.8	0	0	---	0.00	30.425 
06:40	3.4	3.4	3.4	82	-0.8	0	0	---	0.00	30.425 
06:45	3.4	3.4	3.4	82	-0.8	0	0	---	0.00	30.427 
06:50	3.2	3.2	3.2	82	-1.0	0	0	---	0.00	30.427 
06:55	3.2	3.2	3.2	82	-1.0	0	0	---	0.00	30.427 
07:00	3.2	3.2	3.2	82	-1.0	0	0	---	0.00	30.437 
07:05	3.2	3.2	3.2	82	-1.0	0	0	---	0.00	30.437 
07:10	3.4	3.4	3.4	82	-0.8	0	0	---	0.00	30.437 
07:15	3.2	3.2	3.2	81	-1.3	0	1	90	0.00	30.437 
07:20	3.2	3.2	3.2	81	-1.3	0	0	---	0.00	30.437 
07:25	3.2	3.2	3.2	82	-1.0	0	0	---	0.00	30.437 
07:30	3.2	3.2	3.2	81	-1.3	0	0	---	0.00	30.430 
07:35	3.2	3.2	3.2	81	-1.3	0	1	90	0.00	30.430 
07:40	3.0	3.0	3.0	81	-1.5	0	0	---	0.00	30.430 
07:45	3.0	3.0	3.0	81	-1.5	0	0	---	0.00	30.429 
07:50	3.0	3.0	3.0	81	-1.5	0	0	---	0.00	30.429 
07:55	3.0	3.0	3.0	81	-1.5	0	0	---	0.00	30.429 
08:00	2.8	2.8	2.8	81	-1.7	0	0	---	0.00	30.430 
08:05	2.8	2.8	2.8	81	-1.7	0	0	---	0.00	30.430 
08:10	2.6	2.6	2.6	81	-1.9	0	0	---	0.00	30.430 
08:15	2.6	2.6	2.6	81	-1.9	0	0	---	0.00	30.429 
08:20	2.6	2.6	2.6	81	-1.9	0	0	---	0.00	30.429 
08:25	2.6	2.6	2.6	81	-1.9	0	0	---	0.00	30.429 
08:30	2.4	2.4	2.4	81	-2.1	0	0	---	0.00	30.429 
08:35	2.4	2.4	2.4	81	-2.1	0	0	---	0.00	30.429 
08:40	2.4	2.4	2.4	81	-2.1	0	0	---	0.00	30.429 
08:45	2.4	2.4	2.4	81	-2.1	0	0	---	0.00	30.437 
08:50	2.4	2.4	2.4	81	-2.1	0	0	---	0.00	30.437 
08:55	2.4	2.4	2.4	81	-2.1	0	0	---	0.00	30.437 
09:00	2.4	2.4	2.4	81	-2.1	0	0	---	0.00	30.430 
09:05	2.6	2.6	2.6	81	-1.9	0	0	---	0.00	30.430 
09:10	2.6	2.6	2.6	81	-1.9	0	0	---	0.00	30.430 
09:15	2.6	2.6	2.6	81	-1.9	0	0	---	0.00	30.432 
09:20	2.6	2.6	2.6	81	-1.9	0	0	---	0.00	30.432 
09:25	2.8	2.8	2.8	81	-1.7	0	0	---	0.00	30.432 
09:30	3.0	3.0	3.0	81	-1.5	0	0	---	0.00	30.429 
09:35	3.2	3.2	3.2	81	-1.3	0	0	---	0.00	30.429 
09:40	3.4	3.4	3.4	81	-1.1	0	0	---	0.00	30.429 
09:45	3.4	3.4	3.4	81	-1.1	0	0	---	0.00	30.429 
09:50	3.5	3.5	3.5	81	-1.0	0	0	---	0.00	30.429 
09:55	3.9	3.9	3.9	81	-0.6	0	1	68	0.00	30.429 
10:00	4.1	4.1	4.1	81	-0.4	0	0	---	0.00	30.429 
10:05	4.3	4.3	4.3	81	-0.2	0	1	68	0.00	30.429 
10:10	4.1	4.1	4.1	81	-0.4	0	1	68	0.00	30.429 
10:15	4.1	4.1	4.1	81	-0.4	0	1	68	0.00	30.430 
10:20	4.1	4.1	4.1	81	-0.4	0	2	68	0.00	30.430 
10:25	3.9	3.9	3.9	80	-0.9	0	2	68	0.00	30.430 
10:30	3.9	3.9	3.9	80	-0.9	0	2	68	0.00	30.431 
10:35	3.9	3.9	3.9	81	-0.6	0	1	68	0.00	30.431 
10:40	4.1	4.1	4.1	81	-0.4	0	2	68	0.00	30.431 
10:45	4.1	4.1	4.1	81	-0.4	0	1	68	0.00	30.438 
10:50	4.1	4.1	4.1	81	-0.4	0	2	68	0.00	30.438 
10:55	4.3	4.3	4.3	81	-0.2	0	1	68	0.00	30.438 
11:00	4.3	4.3	4.3	81	-0.2	0	1	68	0.00	30.434 
11:05	4.3	4.3	4.3	81	-0.2	0	1	68	0.00	30.434 
11:10	4.5	4.5	4.5	80	-0.3	0	1	68	0.00	30.434 
11:15	4.7	4.7	4.7	81	0.2	0	1	68	0.00	30.428 
11:20	4.7	4.7	4.7	81	0.2	0	2	68	0.00	30.428 
11:25	4.7	4.7	4.7	80	-0.1	0	1	68	0.00	30.428 
11:30	5.0	5.0	5.0	81	0.5	0	1	68	0.00	30.426 
11:35	5.2	5.2	5.2	80	0.4	0	1	68	0.00	30.426 
11:40	5.4	5.4	5.4	81	0.9	0	1	68	0.00	30.426 
11:45	5.8	5.8	5.8	81	1.3	0	1	68	0.00	30.411 
11:50	5.8	5.8	5.8	80	1.0	0	1	68	0.00	30.411 
11:55	6.0	6.0	6.0	80	1.2	0	1	68	0.00	30.411 
12:00	6.1	6.1	6.1	80	1.3	0	1	68	0.00	30.403 
12:05	6.3	6.3	6.3	80	1.5	0	1	68	0.00	30.403 
12:10	6.5	6.5	6.5	80	1.7	0	2	68	0.00	30.403 
12:15	6.7	6.7	6.7	80	1.9	0	1	68	0.00	30.390 
12:20	7.0	7.0	7.0	80	2.2	0	1	68	0.00	30.390 
12:25	7.2	7.2	7.2	79	2.1	0	2	68	0.00	30.390 
12:30	7.2	7.2	7.2	79	2.1	0	2	68	0.00	30.386 
12:35	7.4	7.4	7.4	79	2.3	0	1	68	0.00	30.386 
12:40	7.7	7.7	7.7	78	2.3	0	1	68	0.00	30.386 
12:45	7.9	7.9	7.9	78	2.5	0	1	68	0.00	30.377 
12:50	8.1	8.1	8.1	78	2.7	0	2	68	0.00	30.377 
12:55	8.4	8.4	8.4	77	2.7	0	1	68	0.00	30.377 
13:00	8.6	8.6	8.6	77	2.9	0	3	68	0.00	30.374 
13:05	9.0	9.0	9.0	76	3.0	0	2	68	0.00	30.374 
13:10	9.3	9.3	9.3	75	3.0	0	3	68	0.00	30.374 
13:15	9.7	9.7	9.7	74	3.1	0	2	68	0.00	30.374 
13:20	10.0	10.0	10.0	73	3.1	0	2	68	0.00	30.374 
13:25	10.2	10.2	10.2	71	2.7	0	2	68	0.00	30.374 
13:30	10.5	10.5	10.5	70	2.7	0	1	68	0.00	30.368 
13:35	10.7	10.7	10.7	69	2.6	0	2	68	0.00	30.368 
13:40	11.1	11.1	11.1	68	2.6	0	2	68	0.00	30.368 
13:45	11.2	11.2	11.2	68	2.7	0	1	68	0.00	30.357 
13:50	11.4	11.4	11.4	67	2.6	0	1	68	0.00	30.357 
13:55	11.6	11.6	11.6	66	2.5	0	1	68	0.00	30.357 
14:00	11.6	11.6	11.6	65	2.1	0	1	68	0.00	30.345 
14:05	11.4	11.4	11.4	65	2.0	0	1	68	0.00	30.345 
14:10	11.6	11.6	11.6	64	1.8	0	1	68	0.00	30.345 
14:15	11.7	11.7	11.7	65	2.2	0	1	68	0.00	30.342 
14:20	12.1	12.1	12.1	64	2.3	0	0	---	0.00	30.342 
14:25	12.3	12.3	12.3	63	2.1	0	2	68	0.00	30.342 
14:30	12.4	12.4	12.4	63	2.2	0	1	68	0.00	30.349 
14:35	12.8	12.8	12.8	62	2.3	0	1	22	0.00	30.349 
14:40	13.1	13.1	13.1	62	2.6	0	1	22	0.00	30.349 
14:45	13.5	13.5	13.5	62	2.9	0	1	315	0.00	30.349 
14:50	13.6	13.6	13.6	61	2.7	0	1	0	0.00	30.349 
14:55	14.0	14.0	14.0	60	2.7	0	2	0	0.00	30.349 
15:00	14.0	14.0	14.0	60	2.7	0	1	0	0.00	30.347 
15:05	14.3	14.3	14.3	60	3.0	0	1	0	0.00	30.347 
15:10	14.4	14.4	14.4	58	2.4	0	1	0	0.00	30.347 
15:15	14.4	14.4	14.4	58	2.4	0	0	---	0.00	30.341 
15:20	14.6	14.6	14.6	58	2.5	0	0	---	0.00	30.341 
15:25	14.9	14.9	14.9	58	2.8	0	0	---	0.00	30.341 
15:30	15.1	15.1	15.1	58	3.0	0	0	---	0.00	30.342 
15:35	15.2	15.2	15.2	57	2.7	0	0	---	0.00	30.342 
15:40	15.6	15.6	15.6	57	3.1	0	0	---	0.00	30.342 
15:45	15.2	15.2	15.2	56	2.4	0	1	0	0.00	30.340 
15:50	14.9	14.9	14.9	59	3.2	0	2	0	0.00	30.340 
15:55	14.6	14.6	14.6	61	3.6	0	1	0	0.00	30.340 
16:00	14.4	14.4	14.4	61	3.4	0	1	0	0.00	30.340 
16:05	14.3	14.3	14.3	62	3.7	0	2	0	0.00	30.340 
16:10	14.1	14.1	14.1	63	3.9	0	2	0	0.00	30.340 
16:15	13.8	13.8	13.8	63	3.6	1	2	0	0.00	30.332 
16:20	13.6	13.6	13.6	65	4.1	0	2	0	0.00	30.332 
16:25	13.5	13.5	13.5	65	4.0	0	1	0	0.00	30.332 
16:30	13.5	13.5	13.5	65	4.0	0	2	0	0.00	30.336 
16:35	13.5	13.5	13.5	66	4.3	0	1	0	0.00	30.336 
16:40	13.6	13.6	13.6	66	4.4	0	1	0	0.00	30.336 
16:45	13.6	13.6	13.6	66	4.4	0	1	0	0.00	30.338 
16:50	13.8	13.8	13.8	66	4.6	0	1	0	0.00	30.338 
16:55	13.6	13.6	13.6	66	4.4	0	1	0	0.00	30.338 
17:00	13.6	13.6	13.6	66	4.4	0	0	---	0.00	30.340 
17:05	13.8	13.8	13.8	65	4.2	0	1	0	0.00	30.340 
17:10	13.8	13.8	13.8	65	4.2	0	1	0	0.00	30.340 
17:15	13.8	13.8	13.8	65	4.2	0	1	0	0.00	30.348 
17:20	13.6	13.6	13.6	64	3.7	0	1	0	0.00	30.348 
17:25	13.6	13.6	13.6	65	4.1	0	1	0	0.00	30.348 
17:30	13.5	13.5	13.5	65	4.0	0	0	---	0.00	30.345 
17:35	13.3	13.3	13.3	65	3.8	0	0	---	0.00	30.345 
17:40	12.9	12.9	12.9	65	3.4	0	0	---	0.00	30.345 
17:45	12.8	12.8	12.8	65	3.3	0	0	---	0.00	30.339 
17:50	12.6	12.6	12.6	66	3.4	0	0	---	0.00	30.339 
17:55	12.4	12.4	12.4	66	3.2	0	1	0	0.00	30.339 
18:00	12.3	12.3	12.3	67	3.5	0	1	0	0.00	30.343 
18:05	12.1	12.1	12.1	69	3.9	0	1	0	0.00	30.343 
18:10	11.9	11.9	11.9	69	3.7	0	0	---	0.00	30.343 
18:15	11.7	11.7	11.7	69	3.5	0	0	---	0.00	30.343 
18:20	11.7	11.7	11.7	70	3.8	0	0	---	0.00	30.343 
18:25	11.6	11.6	11.6	70	3.7	0	1	0	0.00	30.343 
18:30	11.6	11.6	11.6	71	4.0	0	0	---	0.00	30.342 
18:35	11.6	11.6	11.6	71	4.0	0	0	---	0.00	30.342 
18:40	11.7	11.7	11.7	72	4.4	0	0	---	0.00	30.342 
18:45	11.7	11.7	11.7	73	4.7	0	0	---	0.00	30.341 
18:50	11.9	11.9	11.9	72	4.6	0	1	0	0.00	30.341 
18:55	12.1	12.1	12.1	72	4.8	0	0	---	0.00	30.341 
19:00	12.1	12.1	12.1	72	4.8	0	1	0	0.00	30.340 
19:05	12.1	12.1	12.1	72	4.8	0	1	0	0.00	30.340 
19:10	12.1	12.1	12.1	72	4.8	0	1	0	0.00	30.340 
19:15	12.1	12.1	12.1	72	4.8	0	1	0	0.00	30.338 
19:20	12.1	12.1	12.1	72	4.8	0	0	---	0.00	30.338 
19:25	12.1	12.1	12.1	72	4.8	0	0	---	0.00	30.338 
19:30	11.9	11.9	11.9	72	4.6	0	1	0	0.00	30.337 
19:35	11.9	11.9	11.9	71	4.3	0	1	0	0.00	30.337 
19:40	11.7	11.7	11.7	71	4.1	0	1	0	0.00	30.337 
19:45	11.6	11.6	11.6	71	4.0	0	0	---	0.00	30.332 
19:50	11.6	11.6	11.6	71	4.0	0	0	---	0.00	30.332 
19:55	11.4	11.4	11.4	71	3.9	0	0	---	0.00	30.332 
20:00	11.1	11.1	11.1	72	3.9	0	0	---	0.00	30.332 
20:05	10.7	10.7	10.7	72	3.5	0	0	---	0.00	30.332 
20:10	10.4	10.4	10.4	72	3.2	0	0	---	0.00	30.332 
20:15	10.0	10.0	10.0	72	2.8	0	0	---	0.00	30.332 
20:20	9.7	9.7	9.7	72	2.5	0	0	---	0.00	30.332 
20:25	9.5	9.5	9.5	73	2.6	0	0	---	0.00	30.332 
20:30	9.3	9.3	9.3	73	2.4	0	0	---	0.00	30.333 
20:35	9.0	9.0	9.0	73	2.1	0	0	---	0.00	30.333 
20:40	8.8	8.8	8.8	74	2.2	0	0	---	0.00	30.333 
20:45	8.6	8.6	8.6	74	2.0	0	0	---	0.00	30.334 
20:50	8.4	8.4	8.4	74	1.8	0	0	---	0.00	30.334 
20:55	8.3	8.3	8.3	75	2.0	0	0	---	0.00	30.334 
21:00	8.3	8.3	8.3	75	2.0	0	0	---	0.00	30.342 
21:05	8.3	8.3	8.3	76	2.3	0	0	---	0.00	30.342 
21:10	8.3	8.3	8.3	76	2.3	0	0	---	0.00	30.342 
21:15	8.3	8.3	8.3	76	2.3	0	0	---	0.00	30.335 
21:20	8.3	8.3	8.3	77	2.6	0	0	---	0.00	30.335 
21:25	8.1	8.1	8.1	77	2.4	0	0	---	0.00	30.335 
21:30	7.9	7.9	7.9	77	2.2	0	0	---	0.00	30.331 
21:35	7.7	7.7	7.7	77	2.0	0	0	---	0.00	30.331 
21:40	7.6	7.6	7.6	77	1.9	0	0	---	0.00	30.331 
21:45	7.2	7.2	7.2	77	1.5	0	0	---	0.00	30.330 
21:50	7.0	7.0	7.0	78	1.6	0	0	---	0.00	30.330 
21:55	6.9	6.9	6.9	77	1.2	0	0	---	0.00	30.330 
22:00	6.7	6.7	6.7	78	1.3	0	0	---	0.00	30.330 
22:05	6.5	6.5	6.5	78	1.1	0	0	---	0.00	30.330 
22:10	6.3	6.3	6.3	78	0.9	0	0	---	0.00	30.330 
22:15	6.1	6.1	6.1	78	0.7	0	0	---	0.00	30.331 
22:20	5.8	5.8	5.8	78	0.4	0	0	---	0.00	30.331 
22:25	5.8	5.8	5.8	79	0.7	0	0	---	0.00	30.331 
22:30	5.8	5.8	5.8	79	0.7	0	0	---	0.00	30.329 
22:35	6.0	6.0	6.0	79	0.9	0	0	---	0.00	30.329 
22:40	6.3	6.3	6.3	80	1.5	0	0	---	0.00	30.329 
22:45	6.3	6.3	6.3	81	1.7	0	0	---	0.00	30.327 
22:50	6.5	6.5	6.5	81	1.9	0	0	---	0.00	30.327 
22:55	6.5	6.5	6.5	81	1.9	0	0	---	0.00	30.327 
23:00	6.5	6.5	6.5	81	1.9	0	0	---	0.00	30.321 
23:05	6.5	6.5	6.5	81	1.9	0	0	---	0.00	30.321 
23:10	6.5	6.5	6.5	81	1.9	0	0	---	0.00	30.321 
23:15	6.5	6.5	6.5	81	1.9	0	0	---	0.00	30.326 
23:20	6.5	6.5	6.5	81	1.9	0	0	---	0.00	30.326 
23:25	6.7	6.7	6.7	82	2.4	0	0	---	0.00	30.326 
23:30	7.0	7.0	7.0	82	2.7	0	0	---	0.00	30.321 
23:35	7.4	7.4	7.4	82	3.1	0	0	---	0.00	30.321 
23:40	7.6	7.6	7.6	82	3.3	0	0	---	0.00	30.321 
23:45	7.7	7.7	7.7	82	3.4	0	0	---	0.00	30.313 
23:50	7.7	7.7	7.7	82	3.4	0	0	---	0.00	30.313 
23:55	7.6	7.6	7.6	82	3.3	0	0	---	0.00	30.313 

CoCoRaHS
IN-AL-39
A2 Web Hosting
Creative Commons License
GoDaddy
search engine by freefind advanced

loaded 2018-11-17 14:05:52 • last modified 2010-11-18 10:43:29
Privacy PolicyDisclaimer
• wx.awcolley.com is powered by PmWiki v.2002016 •
• all content (unless otherwise noted) © 2018 A W Colley